sensor_id;sensor_type;location;lat;lon;timestamp;P1;durP1;ratioP1;P2;durP2;ratioP2
23567;SDS011;11962;50.838;4.430;2022-10-16T00:02:21;3.53;;;0.93;;
23567;SDS011;11962;50.838;4.430;2022-10-16T00:04:47;1.90;;;0.90;;
23567;SDS011;11962;50.838;4.430;2022-10-16T00:07:13;1.17;;;0.95;;
23567;SDS011;11962;50.838;4.430;2022-10-16T00:09:38;0.90;;;0.77;;
23567;SDS011;11962;50.838;4.430;2022-10-16T00:12:04;1.75;;;1.00;;
23567;SDS011;11962;50.838;4.430;2022-10-16T00:17:53;1.90;;;0.73;;
23567;SDS011;11962;50.838;4.430;2022-10-16T00:20:19;5.05;;;1.02;;
23567;SDS011;11962;50.838;4.430;2022-10-16T00:22:44;2.05;;;0.90;;
23567;SDS011;11962;50.838;4.430;2022-10-16T00:25:10;3.63;;;1.00;;
23567;SDS011;11962;50.838;4.430;2022-10-16T00:27:35;1.40;;;0.90;;
23567;SDS011;11962;50.838;4.430;2022-10-16T00:33:23;3.08;;;0.80;;
23567;SDS011;11962;50.838;4.430;2022-10-16T00:35:48;2.35;;;0.90;;
23567;SDS011;11962;50.838;4.430;2022-10-16T00:38:15;1.50;;;1.00;;
23567;SDS011;11962;50.838;4.430;2022-10-16T00:40:41;2.28;;;1.10;;
23567;SDS011;11962;50.838;4.430;2022-10-16T00:43:12;4.28;;;1.25;;
23567;SDS011;11962;50.838;4.430;2022-10-16T00:49:03;1.67;;;0.95;;
23567;SDS011;11962;50.838;4.430;2022-10-16T00:51:39;1.17;;;0.80;;
23567;SDS011;11962;50.838;4.430;2022-10-16T00:54:12;1.00;;;0.82;;
23567;SDS011;11962;50.838;4.430;2022-10-16T00:56:40;0.90;;;0.80;;
23567;SDS011;11962;50.838;4.430;2022-10-16T00:59:18;2.05;;;0.85;;
23567;SDS011;11962;50.838;4.430;2022-10-16T01:05:08;2.65;;;1.02;;
23567;SDS011;11962;50.838;4.430;2022-10-16T01:07:37;3.08;;;0.90;;
23567;SDS011;11962;50.838;4.430;2022-10-16T01:13:21;2.05;;;0.90;;
23567;SDS011;11962;50.838;4.430;2022-10-16T01:15:56;1.80;;;1.10;;
23567;SDS011;11962;50.838;4.430;2022-10-16T01:26:10;3.42;;;1.15;;
23567;SDS011;11962;50.838;4.430;2022-10-16T01:31:58;6.32;;;1.23;;
23567;SDS011;11962;50.838;4.430;2022-10-16T01:34:47;1.05;;;0.82;;
23567;SDS011;11962;50.838;4.430;2022-10-16T01:37:25;6.10;;;1.65;;
23567;SDS011;11962;50.838;4.430;2022-10-16T01:40:11;4.35;;;0.90;;
23567;SDS011;11962;50.838;4.430;2022-10-16T01:42:44;1.95;;;1.08;;
23567;SDS011;11962;50.838;4.430;2022-10-16T01:48:35;1.40;;;1.08;;
23567;SDS011;11962;50.838;4.430;2022-10-16T01:51:06;1.73;;;1.02;;
23567;SDS011;11962;50.838;4.430;2022-10-16T01:53:36;3.83;;;1.30;;
23567;SDS011;11962;50.838;4.430;2022-10-16T01:56:04;2.78;;;1.20;;
23567;SDS011;11962;50.838;4.430;2022-10-16T01:58:35;1.67;;;1.02;;
23567;SDS011;11962;50.838;4.430;2022-10-16T02:07:48;1.23;;;0.93;;
23567;SDS011;11962;50.838;4.430;2022-10-16T02:10:14;3.33;;;1.17;;
23567;SDS011;11962;50.838;4.430;2022-10-16T02:12:42;2.65;;;1.38;;
23567;SDS011;11962;50.838;4.430;2022-10-16T02:15:12;2.63;;;1.20;;
23567;SDS011;11962;50.838;4.430;2022-10-16T02:17:38;2.80;;;1.15;;
23567;SDS011;11962;50.838;4.430;2022-10-16T02:20:04;2.80;;;1.35;;
23567;SDS011;11962;50.838;4.430;2022-10-16T02:22:34;2.50;;;1.25;;
23567;SDS011;11962;50.838;4.430;2022-10-16T02:25:10;2.90;;;1.10;;
23567;SDS011;11962;50.838;4.430;2022-10-16T02:27:56;1.77;;;1.23;;
23567;SDS011;11962;50.838;4.430;2022-10-16T02:30:33;3.50;;;1.48;;
23567;SDS011;11962;50.838;4.430;2022-10-16T02:36:05;2.75;;;1.30;;
23567;SDS011;11962;50.838;4.430;2022-10-16T02:38:31;2.15;;;1.10;;
23567;SDS011;11962;50.838;4.430;2022-10-16T02:40:58;2.13;;;1.45;;
23567;SDS011;11962;50.838;4.430;2022-10-16T02:43:24;3.13;;;1.15;;
23567;SDS011;11962;50.838;4.430;2022-10-16T02:49:13;2.63;;;1.42;;
23567;SDS011;11962;50.838;4.430;2022-10-16T02:51:39;2.03;;;1.45;;
23567;SDS011;11962;50.838;4.430;2022-10-16T02:54:04;3.78;;;1.42;;
23567;SDS011;11962;50.838;4.430;2022-10-16T02:56:30;6.07;;;1.65;;
23567;SDS011;11962;50.838;4.430;2022-10-16T02:59:08;2.28;;;1.52;;
23567;SDS011;11962;50.838;4.430;2022-10-16T03:01:33;2.00;;;1.50;;
23567;SDS011;11962;50.838;4.430;2022-10-16T03:03:59;4.55;;;1.30;;
23567;SDS011;11962;50.838;4.430;2022-10-16T03:06:25;6.82;;;1.63;;
23567;SDS011;11962;50.838;4.430;2022-10-16T03:08:50;4.00;;;1.60;;
23567;SDS011;11962;50.838;4.430;2022-10-16T03:11:16;2.42;;;1.50;;
23567;SDS011;11962;50.838;4.430;2022-10-16T03:13:41;3.25;;;1.30;;
23567;SDS011;11962;50.838;4.430;2022-10-16T03:16:07;3.17;;;1.58;;
23567;SDS011;11962;50.838;4.430;2022-10-16T03:18:33;2.65;;;1.55;;
23567;SDS011;11962;50.838;4.430;2022-10-16T03:20:58;1.95;;;1.40;;
23567;SDS011;11962;50.838;4.430;2022-10-16T03:23:24;4.38;;;1.70;;
23567;SDS011;11962;50.838;4.430;2022-10-16T03:25:49;4.05;;;1.50;;
23567;SDS011;11962;50.838;4.430;2022-10-16T03:28:15;4.47;;;1.60;;
23567;SDS011;11962;50.838;4.430;2022-10-16T03:30:42;4.30;;;1.60;;
23567;SDS011;11962;50.838;4.430;2022-10-16T03:36:30;3.80;;;1.63;;
23567;SDS011;11962;50.838;4.430;2022-10-16T03:38:56;5.93;;;1.55;;
23567;SDS011;11962;50.838;4.430;2022-10-16T03:41:22;3.78;;;1.52;;
23567;SDS011;11962;50.838;4.430;2022-10-16T03:43:47;4.35;;;1.55;;
23567;SDS011;11962;50.838;4.430;2022-10-16T03:46:13;2.38;;;1.40;;
23567;SDS011;11962;50.838;4.430;2022-10-16T03:52:00;3.00;;;1.67;;
23567;SDS011;11962;50.838;4.430;2022-10-16T03:54:26;4.70;;;1.65;;
23567;SDS011;11962;50.838;4.430;2022-10-16T03:56:51;3.30;;;1.50;;
23567;SDS011;11962;50.838;4.430;2022-10-16T03:59:17;3.80;;;1.55;;
23567;SDS011;11962;50.838;4.430;2022-10-16T04:01:42;6.97;;;1.48;;
23567;SDS011;11962;50.838;4.430;2022-10-16T04:10:24;6.22;;;1.58;;
23567;SDS011;11962;50.838;4.430;2022-10-16T04:12:49;4.63;;;2.05;;
23567;SDS011;11962;50.838;4.430;2022-10-16T04:15:15;1.50;;;1.38;;
23567;SDS011;11962;50.838;4.430;2022-10-16T04:17:41;4.20;;;1.50;;
23567;SDS011;11962;50.838;4.430;2022-10-16T04:20:07;4.88;;;1.83;;
23567;SDS011;11962;50.838;4.430;2022-10-16T04:22:33;4.88;;;1.58;;
23567;SDS011;11962;50.838;4.430;2022-10-16T04:24:58;5.95;;;1.67;;
23567;SDS011;11962;50.838;4.430;2022-10-16T04:27:24;9.40;;;1.77;;
23567;SDS011;11962;50.838;4.430;2022-10-16T04:29:50;4.38;;;1.60;;
23567;SDS011;11962;50.838;4.430;2022-10-16T04:32:31;3.85;;;1.60;;
23567;SDS011;11962;50.838;4.430;2022-10-16T04:34:56;1.65;;;1.25;;
23567;SDS011;11962;50.838;4.430;2022-10-16T04:37:25;6.78;;;1.50;;
23567;SDS011;11962;50.838;4.430;2022-10-16T04:39:52;5.40;;;1.67;;
23567;SDS011;11962;50.838;4.430;2022-10-16T04:42:18;6.75;;;1.90;;
23567;SDS011;11962;50.838;4.430;2022-10-16T04:44:44;4.47;;;1.70;;
23567;SDS011;11962;50.838;4.430;2022-10-16T04:47:10;3.30;;;1.50;;
23567;SDS011;11962;50.838;4.430;2022-10-16T04:49:35;3.55;;;1.63;;
23567;SDS011;11962;50.838;4.430;2022-10-16T04:52:01;4.82;;;1.90;;
23567;SDS011;11962;50.838;4.430;2022-10-16T04:54:27;4.03;;;1.80;;
23567;SDS011;11962;50.838;4.430;2022-10-16T04:56:52;4.00;;;1.77;;
23567;SDS011;11962;50.838;4.430;2022-10-16T04:59:18;2.22;;;1.23;;
23567;SDS011;11962;50.838;4.430;2022-10-16T05:01:46;3.97;;;1.63;;
23567;SDS011;11962;50.838;4.430;2022-10-16T05:04:12;3.80;;;1.80;;
23567;SDS011;11962;50.838;4.430;2022-10-16T05:06:37;2.78;;;1.67;;
23567;SDS011;11962;50.838;4.430;2022-10-16T05:09:04;4.60;;;1.88;;
23567;SDS011;11962;50.838;4.430;2022-10-16T05:11:30;4.10;;;1.52;;
23567;SDS011;11962;50.838;4.430;2022-10-16T05:13:56;2.95;;;1.60;;
23567;SDS011;11962;50.838;4.430;2022-10-16T05:16:21;7.22;;;1.92;;
23567;SDS011;11962;50.838;4.430;2022-10-16T05:22:24;12.50;;;1.95;;
23567;SDS011;11962;50.838;4.430;2022-10-16T05:24:50;4.03;;;1.63;;
23567;SDS011;11962;50.838;4.430;2022-10-16T05:27:16;4.38;;;2.00;;
23567;SDS011;11962;50.838;4.430;2022-10-16T05:30:02;5.70;;;1.90;;
23567;SDS011;11962;50.838;4.430;2022-10-16T05:32:28;4.30;;;1.80;;
23567;SDS011;11962;50.838;4.430;2022-10-16T05:41:15;7.10;;;1.90;;
23567;SDS011;11962;50.838;4.430;2022-10-16T05:43:46;6.15;;;2.13;;
23567;SDS011;11962;50.838;4.430;2022-10-16T05:46:12;3.45;;;1.98;;
23567;SDS011;11962;50.838;4.430;2022-10-16T05:48:38;14.32;;;2.30;;
23567;SDS011;11962;50.838;4.430;2022-10-16T05:51:05;4.32;;;1.88;;
23567;SDS011;11962;50.838;4.430;2022-10-16T05:53:32;3.63;;;2.08;;
23567;SDS011;11962;50.838;4.430;2022-10-16T05:55:59;2.63;;;1.87;;
23567;SDS011;11962;50.838;4.430;2022-10-16T05:58:28;4.70;;;2.00;;
23567;SDS011;11962;50.838;4.430;2022-10-16T06:00:56;5.65;;;1.58;;
23567;SDS011;11962;50.838;4.430;2022-10-16T06:03:23;3.95;;;1.70;;
23567;SDS011;11962;50.838;4.430;2022-10-16T06:05:49;3.83;;;1.83;;
23567;SDS011;11962;50.838;4.430;2022-10-16T06:08:15;7.75;;;2.20;;
23567;SDS011;11962;50.838;4.430;2022-10-16T06:10:41;6.55;;;2.10;;
23567;SDS011;11962;50.838;4.430;2022-10-16T06:13:08;3.17;;;2.00;;
23567;SDS011;11962;50.838;4.430;2022-10-16T06:15:34;10.30;;;2.42;;
23567;SDS011;11962;50.838;4.430;2022-10-16T06:18:00;4.95;;;2.20;;
23567;SDS011;11962;50.838;4.430;2022-10-16T06:23:15;7.00;;;2.08;;
23567;SDS011;11962;50.838;4.430;2022-10-16T06:25:41;6.90;;;2.17;;
23567;SDS011;11962;50.838;4.430;2022-10-16T06:28:07;3.13;;;1.80;;
23567;SDS011;11962;50.838;4.430;2022-10-16T06:30:32;3.00;;;1.88;;
23567;SDS011;11962;50.838;4.430;2022-10-16T06:32:58;3.00;;;2.28;;
23567;SDS011;11962;50.838;4.430;2022-10-16T06:38:46;4.75;;;1.83;;
23567;SDS011;11962;50.838;4.430;2022-10-16T06:41:13;3.78;;;1.80;;
23567;SDS011;11962;50.838;4.430;2022-10-16T06:43:40;3.95;;;1.67;;
23567;SDS011;11962;50.838;4.430;2022-10-16T06:46:06;6.22;;;1.90;;
23567;SDS011;11962;50.838;4.430;2022-10-16T06:48:35;7.43;;;2.17;;
23567;SDS011;11962;50.838;4.430;2022-10-16T06:51:05;2.72;;;1.58;;
23567;SDS011;11962;50.838;4.430;2022-10-16T06:53:32;3.70;;;1.95;;
23567;SDS011;11962;50.838;4.430;2022-10-16T06:56:15;4.57;;;1.85;;
23567;SDS011;11962;50.838;4.430;2022-10-16T06:58:42;7.65;;;1.83;;
23567;SDS011;11962;50.838;4.430;2022-10-16T07:01:09;4.28;;;2.03;;
23567;SDS011;11962;50.838;4.430;2022-10-16T07:03:36;2.90;;;1.80;;
23567;SDS011;11962;50.838;4.430;2022-10-16T07:06:03;6.05;;;1.42;;
23567;SDS011;11962;50.838;4.430;2022-10-16T07:08:31;7.97;;;2.22;;
23567;SDS011;11962;50.838;4.430;2022-10-16T07:10:58;2.97;;;1.50;;
23567;SDS011;11962;50.838;4.430;2022-10-16T07:13:28;3.28;;;1.50;;
23567;SDS011;11962;50.838;4.430;2022-10-16T07:15:54;4.45;;;1.77;;
23567;SDS011;11962;50.838;4.430;2022-10-16T07:18:20;8.23;;;1.40;;
23567;SDS011;11962;50.838;4.430;2022-10-16T07:20:46;5.25;;;1.70;;
23567;SDS011;11962;50.838;4.430;2022-10-16T07:23:15;5.15;;;2.03;;
23567;SDS011;11962;50.838;4.430;2022-10-16T07:25:40;4.28;;;1.92;;
23567;SDS011;11962;50.838;4.430;2022-10-16T07:28:06;5.07;;;1.58;;
23567;SDS011;11962;50.838;4.430;2022-10-16T07:30:34;8.98;;;1.70;;
23567;SDS011;11962;50.838;4.430;2022-10-16T07:33:02;6.65;;;1.75;;
23567;SDS011;11962;50.838;4.430;2022-10-16T07:35:28;4.38;;;1.70;;
23567;SDS011;11962;50.838;4.430;2022-10-16T07:37:54;5.85;;;1.48;;
23567;SDS011;11962;50.838;4.430;2022-10-16T07:40:20;2.30;;;1.38;;
23567;SDS011;11962;50.838;4.430;2022-10-16T07:42:46;3.33;;;1.88;;
23567;SDS011;11962;50.838;4.430;2022-10-16T07:45:12;5.38;;;1.60;;
23567;SDS011;11962;50.838;4.430;2022-10-16T07:47:37;4.45;;;1.73;;
23567;SDS011;11962;50.838;4.430;2022-10-16T07:50:03;4.03;;;1.35;;
23567;SDS011;11962;50.838;4.430;2022-10-16T07:52:29;4.68;;;1.80;;
23567;SDS011;11962;50.838;4.430;2022-10-16T07:54:55;4.32;;;1.60;;
23567;SDS011;11962;50.838;4.430;2022-10-16T07:57:20;4.00;;;1.48;;
23567;SDS011;11962;50.838;4.430;2022-10-16T07:59:46;3.05;;;1.45;;
23567;SDS011;11962;50.838;4.430;2022-10-16T08:02:12;5.47;;;1.55;;
23567;SDS011;11962;50.838;4.430;2022-10-16T08:04:37;6.57;;;1.92;;
23567;SDS011;11962;50.838;4.430;2022-10-16T08:07:03;3.88;;;1.42;;
23567;SDS011;11962;50.838;4.430;2022-10-16T08:12:28;4.68;;;1.30;;
23567;SDS011;11962;50.838;4.430;2022-10-16T08:14:54;4.22;;;1.60;;
23567;SDS011;11962;50.838;4.430;2022-10-16T08:17:19;5.28;;;1.50;;
23567;SDS011;11962;50.838;4.430;2022-10-16T08:19:46;4.40;;;1.52;;
23567;SDS011;11962;50.838;4.430;2022-10-16T08:22:27;4.95;;;1.70;;
23567;SDS011;11962;50.838;4.430;2022-10-16T08:24:53;4.38;;;1.42;;
23567;SDS011;11962;50.838;4.430;2022-10-16T08:27:18;2.33;;;1.20;;
23567;SDS011;11962;50.838;4.430;2022-10-16T08:29:44;6.45;;;1.50;;
23567;SDS011;11962;50.838;4.430;2022-10-16T08:32:09;6.05;;;1.40;;
23567;SDS011;11962;50.838;4.430;2022-10-16T08:34:35;2.75;;;1.52;;
23567;SDS011;11962;50.838;4.430;2022-10-16T08:37:01;5.25;;;1.25;;
23567;SDS011;11962;50.838;4.430;2022-10-16T08:39:27;4.05;;;0.80;;
23567;SDS011;11962;50.838;4.430;2022-10-16T08:47:19;2.78;;;0.85;;
23567;SDS011;11962;50.838;4.430;2022-10-16T08:49:54;4.15;;;1.10;;
23567;SDS011;11962;50.838;4.430;2022-10-16T08:52:27;4.32;;;0.88;;
23567;SDS011;11962;50.838;4.430;2022-10-16T08:54:56;4.82;;;1.10;;
23567;SDS011;11962;50.838;4.430;2022-10-16T08:57:22;1.52;;;0.70;;
23567;SDS011;11962;50.838;4.430;2022-10-16T08:59:52;3.80;;;0.90;;
23567;SDS011;11962;50.838;4.430;2022-10-16T09:02:32;4.15;;;0.98;;
23567;SDS011;11962;50.838;4.430;2022-10-16T09:08:03;2.53;;;0.80;;
23567;SDS011;11962;50.838;4.430;2022-10-16T09:10:54;2.90;;;1.00;;
23567;SDS011;11962;50.838;4.430;2022-10-16T09:13:29;3.13;;;1.02;;
23567;SDS011;11962;50.838;4.430;2022-10-16T09:21:13;2.65;;;1.08;;
23567;SDS011;11962;50.838;4.430;2022-10-16T09:23:44;3.40;;;0.88;;
23567;SDS011;11962;50.838;4.430;2022-10-16T09:26:11;5.45;;;1.00;;
23567;SDS011;11962;50.838;4.430;2022-10-16T09:28:39;6.00;;;1.08;;
23567;SDS011;11962;50.838;4.430;2022-10-16T09:31:08;4.97;;;0.98;;
23567;SDS011;11962;50.838;4.430;2022-10-16T09:33:48;5.20;;;0.90;;
23567;SDS011;11962;50.838;4.430;2022-10-16T09:36:25;3.78;;;0.90;;
23567;SDS011;11962;50.838;4.430;2022-10-16T09:39:03;3.03;;;0.70;;
23567;SDS011;11962;50.838;4.430;2022-10-16T09:41:30;4.65;;;0.93;;
23567;SDS011;11962;50.838;4.430;2022-10-16T09:43:59;3.15;;;0.90;;
23567;SDS011;11962;50.838;4.430;2022-10-16T09:49:26;5.75;;;1.13;;
23567;SDS011;11962;50.838;4.430;2022-10-16T09:54:48;2.53;;;0.80;;
23567;SDS011;11962;50.838;4.430;2022-10-16T09:57:14;3.70;;;1.10;;
23567;SDS011;11962;50.838;4.430;2022-10-16T09:59:50;3.78;;;0.90;;
23567;SDS011;11962;50.838;4.430;2022-10-16T10:02:18;4.57;;;1.23;;
23567;SDS011;11962;50.838;4.430;2022-10-16T10:04:51;3.47;;;1.17;;
23567;SDS011;11962;50.838;4.430;2022-10-16T10:07:25;4.28;;;0.90;;
23567;SDS011;11962;50.838;4.430;2022-10-16T10:09:58;5.18;;;0.98;;
23567;SDS011;11962;50.838;4.430;2022-10-16T10:12:25;2.40;;;0.63;;
23567;SDS011;11962;50.838;4.430;2022-10-16T10:14:57;3.10;;;0.60;;
23567;SDS011;11962;50.838;4.430;2022-10-16T10:17:29;4.18;;;0.95;;
23567;SDS011;11962;50.838;4.430;2022-10-16T10:19:56;3.72;;;1.10;;
23567;SDS011;11962;50.838;4.430;2022-10-16T10:33:09;4.68;;;1.00;;
23567;SDS011;11962;50.838;4.430;2022-10-16T10:46:35;4.22;;;1.23;;
23567;SDS011;11962;50.838;4.430;2022-10-16T11:01:13;3.80;;;1.08;;
23567;SDS011;11962;50.838;4.430;2022-10-16T11:06:36;3.85;;;0.70;;
23567;SDS011;11962;50.838;4.430;2022-10-16T11:14:48;2.20;;;1.05;;
23567;SDS011;11962;50.838;4.430;2022-10-16T11:17:28;4.47;;;0.80;;
23567;SDS011;11962;50.838;4.430;2022-10-16T11:25:13;6.13;;;1.05;;
23567;SDS011;11962;50.838;4.430;2022-10-16T11:27:54;2.28;;;0.60;;
23567;SDS011;11962;50.838;4.430;2022-10-16T11:30:39;4.70;;;1.00;;
23567;SDS011;11962;50.838;4.430;2022-10-16T11:33:23;4.13;;;0.65;;
23567;SDS011;11962;50.838;4.430;2022-10-16T11:35:55;2.70;;;0.75;;
23567;SDS011;11962;50.838;4.430;2022-10-16T11:38:58;2.95;;;0.90;;
23567;SDS011;11962;50.838;4.430;2022-10-16T11:41:42;2.55;;;0.90;;
23567;SDS011;11962;50.838;4.430;2022-10-16T11:47:01;8.88;;;1.40;;
23567;SDS011;11962;50.838;4.430;2022-10-16T11:49:30;4.28;;;0.98;;
23567;SDS011;11962;50.838;4.430;2022-10-16T11:57:45;2.70;;;0.75;;
23567;SDS011;11962;50.838;4.430;2022-10-16T12:00:23;4.13;;;1.25;;
23567;SDS011;11962;50.838;4.430;2022-10-16T12:03:15;5.15;;;1.13;;
23567;SDS011;11962;50.838;4.430;2022-10-16T12:08:48;3.13;;;0.90;;
23567;SDS011;11962;50.838;4.430;2022-10-16T12:11:31;3.50;;;1.10;;
23567;SDS011;11962;50.838;4.430;2022-10-16T12:16:53;3.10;;;0.60;;
23567;SDS011;11962;50.838;4.430;2022-10-16T12:19:21;2.15;;;0.70;;
23567;SDS011;11962;50.838;4.430;2022-10-16T12:21:49;2.67;;;1.17;;
23567;SDS011;11962;50.838;4.430;2022-10-16T12:24:35;3.50;;;0.95;;
23567;SDS011;11962;50.838;4.430;2022-10-16T12:27:04;5.43;;;1.40;;
23567;SDS011;11962;50.838;4.430;2022-10-16T12:29:36;3.25;;;1.90;;
23567;SDS011;11962;50.838;4.430;2022-10-16T12:32:20;3.80;;;1.00;;
23567;SDS011;11962;50.838;4.430;2022-10-16T12:34:51;3.05;;;0.65;;
23567;SDS011;11962;50.838;4.430;2022-10-16T12:37:20;2.55;;;0.80;;
23567;SDS011;11962;50.838;4.430;2022-10-16T12:39:56;3.05;;;0.50;;
23567;SDS011;11962;50.838;4.430;2022-10-16T12:44:51;4.03;;;0.57;;
23567;SDS011;11962;50.838;4.430;2022-10-16T12:47:24;0.98;;;0.52;;
23567;SDS011;11962;50.838;4.430;2022-10-16T12:50:02;2.42;;;0.73;;
23567;SDS011;11962;50.838;4.430;2022-10-16T12:52:35;4.22;;;0.60;;
23567;SDS011;11962;50.838;4.430;2022-10-16T12:55:03;2.17;;;0.90;;
23567;SDS011;11962;50.838;4.430;2022-10-16T13:00:44;2.03;;;0.80;;
23567;SDS011;11962;50.838;4.430;2022-10-16T13:11:41;4.30;;;0.90;;
23567;SDS011;11962;50.838;4.430;2022-10-16T13:17:01;6.85;;;1.00;;
23567;SDS011;11962;50.838;4.430;2022-10-16T13:28:27;4.07;;;1.00;;
23567;SDS011;11962;50.838;4.430;2022-10-16T13:30:59;3.38;;;0.98;;
23567;SDS011;11962;50.838;4.430;2022-10-16T13:35:59;2.72;;;0.70;;
23567;SDS011;11962;50.838;4.430;2022-10-16T13:38:26;2.80;;;0.70;;
23567;SDS011;11962;50.838;4.430;2022-10-16T13:40:54;3.05;;;0.80;;
23567;SDS011;11962;50.838;4.430;2022-10-16T13:43:23;2.38;;;0.70;;
23567;SDS011;11962;50.838;4.430;2022-10-16T13:48:58;2.67;;;0.80;;
23567;SDS011;11962;50.838;4.430;2022-10-16T13:51:26;3.58;;;0.98;;
23567;SDS011;11962;50.838;4.430;2022-10-16T13:53:53;4.65;;;0.90;;
23567;SDS011;11962;50.838;4.430;2022-10-16T13:56:22;2.67;;;0.90;;
23567;SDS011;11962;50.838;4.430;2022-10-16T13:59:00;5.88;;;0.90;;
23567;SDS011;11962;50.838;4.430;2022-10-16T14:01:28;4.05;;;0.98;;
23567;SDS011;11962;50.838;4.430;2022-10-16T14:04:03;2.67;;;0.80;;
23567;SDS011;11962;50.838;4.430;2022-10-16T14:06:30;2.47;;;0.90;;
23567;SDS011;11962;50.838;4.430;2022-10-16T14:11:50;5.05;;;1.30;;
23567;SDS011;11962;50.838;4.430;2022-10-16T14:14:22;2.67;;;1.15;;
23567;SDS011;11962;50.838;4.430;2022-10-16T14:16:48;5.78;;;1.67;;
23567;SDS011;11962;50.838;4.430;2022-10-16T14:21:46;2.53;;;1.33;;
23567;SDS011;11962;50.838;4.430;2022-10-16T14:24:33;3.53;;;1.38;;
23567;SDS011;11962;50.838;4.430;2022-10-16T14:26:59;2.88;;;0.88;;
23567;SDS011;11962;50.838;4.430;2022-10-16T14:29:26;5.63;;;2.00;;
23567;SDS011;11962;50.838;4.430;2022-10-16T14:32:02;3.90;;;1.60;;
23567;SDS011;11962;50.838;4.430;2022-10-16T14:36:58;4.78;;;1.10;;
23567;SDS011;11962;50.838;4.430;2022-10-16T14:39:51;4.00;;;1.38;;
23567;SDS011;11962;50.838;4.430;2022-10-16T14:42:18;5.32;;;1.50;;
23567;SDS011;11962;50.838;4.430;2022-10-16T14:44:45;5.63;;;1.70;;
23567;SDS011;11962;50.838;4.430;2022-10-16T14:47:16;2.58;;;1.38;;
23567;SDS011;11962;50.838;4.430;2022-10-16T14:49:48;8.02;;;3.22;;
23567;SDS011;11962;50.838;4.430;2022-10-16T14:52:14;4.70;;;1.30;;
23567;SDS011;11962;50.838;4.430;2022-10-16T14:54:40;6.25;;;2.30;;
23567;SDS011;11962;50.838;4.430;2022-10-16T14:57:15;8.27;;;3.08;;
23567;SDS011;11962;50.838;4.430;2022-10-16T14:59:43;7.65;;;4.78;;
23567;SDS011;11962;50.838;4.430;2022-10-16T15:02:27;6.35;;;1.90;;
23567;SDS011;11962;50.838;4.430;2022-10-16T15:04:58;4.15;;;1.75;;
23567;SDS011;11962;50.838;4.430;2022-10-16T15:07:43;4.72;;;1.73;;
23567;SDS011;11962;50.838;4.430;2022-10-16T15:10:10;3.17;;;1.50;;
23567;SDS011;11962;50.838;4.430;2022-10-16T15:12:37;7.03;;;1.65;;
23567;SDS011;11962;50.838;4.430;2022-10-16T15:17:47;6.57;;;2.42;;
23567;SDS011;11962;50.838;4.430;2022-10-16T15:20:18;6.00;;;1.70;;
23567;SDS011;11962;50.838;4.430;2022-10-16T15:22:44;7.03;;;2.00;;
23567;SDS011;11962;50.838;4.430;2022-10-16T15:28:07;7.03;;;1.67;;
23567;SDS011;11962;50.838;4.430;2022-10-16T15:30:34;6.72;;;2.03;;
23567;SDS011;11962;50.838;4.430;2022-10-16T15:33:01;4.80;;;2.20;;
23567;SDS011;11962;50.838;4.430;2022-10-16T15:35:27;2.90;;;1.52;;
23567;SDS011;11962;50.838;4.430;2022-10-16T15:37:53;4.22;;;1.55;;
23567;SDS011;11962;50.838;4.430;2022-10-16T15:40:18;3.53;;;1.40;;
23567;SDS011;11962;50.838;4.430;2022-10-16T15:42:45;5.15;;;1.55;;
23567;SDS011;11962;50.838;4.430;2022-10-16T15:45:11;2.70;;;1.33;;
23567;SDS011;11962;50.838;4.430;2022-10-16T15:47:37;3.30;;;1.30;;
23567;SDS011;11962;50.838;4.430;2022-10-16T15:50:04;5.75;;;1.52;;
23567;SDS011;11962;50.838;4.430;2022-10-16T15:52:30;3.00;;;1.08;;
23567;SDS011;11962;50.838;4.430;2022-10-16T15:54:57;3.80;;;1.58;;
23567;SDS011;11962;50.838;4.430;2022-10-16T15:57:23;3.97;;;1.98;;
23567;SDS011;11962;50.838;4.430;2022-10-16T15:59:49;5.95;;;2.20;;
23567;SDS011;11962;50.838;4.430;2022-10-16T16:02:15;3.95;;;1.83;;
23567;SDS011;11962;50.838;4.430;2022-10-16T16:04:40;6.88;;;1.67;;
23567;SDS011;11962;50.838;4.430;2022-10-16T16:07:06;7.15;;;1.88;;
23567;SDS011;11962;50.838;4.430;2022-10-16T16:09:32;3.88;;;1.75;;
23567;SDS011;11962;50.838;4.430;2022-10-16T16:15:14;5.13;;;2.60;;
23567;SDS011;11962;50.838;4.430;2022-10-16T16:17:40;12.60;;;4.75;;
23567;SDS011;11962;50.838;4.430;2022-10-16T16:20:05;8.80;;;4.47;;
23567;SDS011;11962;50.838;4.430;2022-10-16T16:22:32;9.65;;;4.50;;
23567;SDS011;11962;50.838;4.430;2022-10-16T16:25:03;7.25;;;3.40;;
23567;SDS011;11962;50.838;4.430;2022-10-16T16:27:29;8.45;;;4.05;;
23567;SDS011;11962;50.838;4.430;2022-10-16T16:29:58;11.23;;;6.07;;
23567;SDS011;11962;50.838;4.430;2022-10-16T16:32:24;9.70;;;5.20;;
23567;SDS011;11962;50.838;4.430;2022-10-16T16:34:49;8.60;;;4.43;;
23567;SDS011;11962;50.838;4.430;2022-10-16T16:37:15;8.77;;;5.32;;
23567;SDS011;11962;50.838;4.430;2022-10-16T16:39:41;7.72;;;4.53;;
23567;SDS011;11962;50.838;4.430;2022-10-16T16:42:08;13.00;;;5.28;;
23567;SDS011;11962;50.838;4.430;2022-10-16T16:44:35;6.68;;;4.32;;
23567;SDS011;11962;50.838;4.430;2022-10-16T16:47:01;8.98;;;5.50;;
23567;SDS011;11962;50.838;4.430;2022-10-16T16:49:27;14.75;;;8.00;;
23567;SDS011;11962;50.838;4.430;2022-10-16T16:51:53;14.85;;;9.55;;
23567;SDS011;11962;50.838;4.430;2022-10-16T16:54:19;8.35;;;3.00;;
23567;SDS011;11962;50.838;4.430;2022-10-16T16:56:45;8.65;;;3.50;;
23567;SDS011;11962;50.838;4.430;2022-10-16T16:59:16;5.95;;;3.20;;
23567;SDS011;11962;50.838;4.430;2022-10-16T17:01:47;8.75;;;3.25;;
23567;SDS011;11962;50.838;4.430;2022-10-16T17:04:13;6.28;;;2.80;;
23567;SDS011;11962;50.838;4.430;2022-10-16T17:06:40;8.63;;;3.53;;
23567;SDS011;11962;50.838;4.430;2022-10-16T17:09:06;8.48;;;3.10;;
23567;SDS011;11962;50.838;4.430;2022-10-16T17:11:38;6.32;;;3.05;;
23567;SDS011;11962;50.838;4.430;2022-10-16T17:14:09;9.95;;;3.05;;
23567;SDS011;11962;50.838;4.430;2022-10-16T17:16:35;9.35;;;4.70;;
23567;SDS011;11962;50.838;4.430;2022-10-16T17:19:03;15.05;;;12.15;;
23567;SDS011;11962;50.838;4.430;2022-10-16T17:21:31;11.98;;;8.73;;
23567;SDS011;11962;50.838;4.430;2022-10-16T17:23:57;12.38;;;8.32;;
23567;SDS011;11962;50.838;4.430;2022-10-16T17:26:23;13.13;;;5.88;;
23567;SDS011;11962;50.838;4.430;2022-10-16T17:28:56;11.40;;;5.20;;
23567;SDS011;11962;50.838;4.430;2022-10-16T17:31:25;9.80;;;4.75;;
23567;SDS011;11962;50.838;4.430;2022-10-16T17:34:02;11.50;;;5.95;;
23567;SDS011;11962;50.838;4.430;2022-10-16T17:36:30;9.20;;;4.30;;
23567;SDS011;11962;50.838;4.430;2022-10-16T17:39:00;7.30;;;4.28;;
23567;SDS011;11962;50.838;4.430;2022-10-16T17:41:44;10.88;;;4.85;;
23567;SDS011;11962;50.838;4.430;2022-10-16T17:44:13;13.75;;;6.63;;
23567;SDS011;11962;50.838;4.430;2022-10-16T17:46:44;7.00;;;4.80;;
23567;SDS011;11962;50.838;4.430;2022-10-16T17:49:11;10.80;;;6.07;;
23567;SDS011;11962;50.838;4.430;2022-10-16T17:51:37;8.52;;;5.18;;
23567;SDS011;11962;50.838;4.430;2022-10-16T17:54:03;11.13;;;5.57;;
23567;SDS011;11962;50.838;4.430;2022-10-16T17:56:41;15.93;;;9.50;;
23567;SDS011;11962;50.838;4.430;2022-10-16T17:59:06;29.90;;;20.50;;
23567;SDS011;11962;50.838;4.430;2022-10-16T18:01:34;25.55;;;18.27;;
23567;SDS011;11962;50.838;4.430;2022-10-16T18:04:05;14.90;;;9.75;;
23567;SDS011;11962;50.838;4.430;2022-10-16T18:06:33;15.23;;;7.97;;
23567;SDS011;11962;50.838;4.430;2022-10-16T18:09:00;12.48;;;7.53;;
23567;SDS011;11962;50.838;4.430;2022-10-16T18:11:27;12.73;;;7.50;;
23567;SDS011;11962;50.838;4.430;2022-10-16T18:13:54;13.05;;;7.68;;
23567;SDS011;11962;50.838;4.430;2022-10-16T18:16:21;16.70;;;9.33;;
23567;SDS011;11962;50.838;4.430;2022-10-16T18:18:48;22.50;;;12.85;;
23567;SDS011;11962;50.838;4.430;2022-10-16T18:21:15;16.80;;;8.75;;
23567;SDS011;11962;50.838;4.430;2022-10-16T18:23:42;15.35;;;8.05;;